createdAt,value
2023-03-17T00:01:38.535Z,5.01
2023-03-17T00:04:41.815Z,4.94
2023-03-17T00:07:47.489Z,4.99
2023-03-17T00:10:50.629Z,4.93
2023-03-17T00:13:53.824Z,4.94
2023-03-17T00:16:56.949Z,4.96
2023-03-17T00:19:59.947Z,4.92
2023-03-17T00:23:04.814Z,4.91
2023-03-17T00:26:08.648Z,4.91
2023-03-17T00:29:12.126Z,4.89
2023-03-17T00:32:18.783Z,4.87
2023-03-17T00:35:25.037Z,4.84
2023-03-17T00:38:29.729Z,4.74
2023-03-17T00:41:34.484Z,4.72
2023-03-17T00:44:38.054Z,4.72
2023-03-17T00:47:41.425Z,4.69
2023-03-17T00:50:45.904Z,4.68
2023-03-17T00:53:50.419Z,4.61
2023-03-17T00:56:53.733Z,4.55
2023-03-17T00:59:56.927Z,4.58
2023-03-17T01:02:59.922Z,4.55
2023-03-17T01:06:06.091Z,4.55
2023-03-17T01:09:14.819Z,4.52
2023-03-17T01:12:18.272Z,4.51
2023-03-17T01:15:23.135Z,4.46
2023-03-17T01:18:27.598Z,4.43
2023-03-17T01:21:31.161Z,4.41
2023-03-17T01:24:35.513Z,4.41
2023-03-17T01:27:40.280Z,4.40
2023-03-17T01:30:43.654Z,4.42
2023-03-17T01:33:47.503Z,4.39
2023-03-17T01:36:51.658Z,4.38
2023-03-17T01:39:56.573Z,4.35
2023-03-17T01:43:05.639Z,4.28
2023-03-17T01:46:29.251Z,4.30
2023-03-17T01:49:36.727Z,4.23
2023-03-17T01:52:41.506Z,4.26
2023-03-17T01:55:47.079Z,4.26
2023-03-17T01:58:53.897Z,4.25
2023-03-17T02:02:05.268Z,4.23
2023-03-17T02:05:11.541Z,4.23
2023-03-17T02:08:17.789Z,4.25
2023-03-17T02:11:22.493Z,4.27
2023-03-17T02:14:25.620Z,4.25
2023-03-17T02:17:29.788Z,4.23
2023-03-17T02:21:25.212Z,4.17
2023-03-17T02:24:34.581Z,4.18
2023-03-17T02:27:41.962Z,4.19
2023-03-17T02:30:45.744Z,4.17
2023-03-17T02:33:52.131Z,4.18
2023-03-17T02:36:55.332Z,4.14
2023-03-17T02:40:01.111Z,4.12
2023-03-17T02:43:05.610Z,4.11
2023-03-17T02:46:09.862Z,4.10
2023-03-17T02:49:13.799Z,4.12
2023-03-17T02:52:17.232Z,4.14
2023-03-17T02:55:22.217Z,4.13
2023-03-17T02:58:25.814Z,4.11
2023-03-17T03:01:29.373Z,4.11
2023-03-17T03:04:32.630Z,4.14
2023-03-17T03:07:38.632Z,4.18
2023-03-17T03:10:43.524Z,4.15
2023-03-17T03:13:46.970Z,4.16
2023-03-17T03:16:50.262Z,4.18
2023-03-17T03:19:53.729Z,4.17
2023-03-17T03:22:56.898Z,4.20
2023-03-17T03:26:01.304Z,4.20
2023-03-17T03:29:05.326Z,4.21
2023-03-17T03:32:10.396Z,4.19
2023-03-17T03:35:13.434Z,4.22
2023-03-17T03:38:16.482Z,4.25
2023-03-17T03:41:21.315Z,4.26
2023-03-17T03:44:24.760Z,4.23
2023-03-17T03:47:27.701Z,4.20
2023-03-17T03:50:31.334Z,4.21
2023-03-17T03:53:34.703Z,4.18
2023-03-17T03:56:39.003Z,4.15
2023-03-17T03:59:42.381Z,4.16
2023-03-17T04:02:46.759Z,4.19
2023-03-17T04:05:49.986Z,4.15
2023-03-17T04:08:53.062Z,4.12
2023-03-17T04:11:57.379Z,4.13
2023-03-17T04:15:00.780Z,4.12
2023-03-17T04:18:05.510Z,4.07
2023-03-17T04:21:09.182Z,4.05
2023-03-17T04:24:12.513Z,4.07
2023-03-17T04:27:17.465Z,4.04
2023-03-17T04:30:20.664Z,4.03
2023-03-17T04:33:23.626Z,4.05
2023-03-17T04:36:27.039Z,4.04
2023-03-17T04:39:30.402Z,4.04
2023-03-17T04:42:34.660Z,3.93
2023-03-17T04:45:37.993Z,3.93
2023-03-17T04:48:41.428Z,3.94
2023-03-17T04:51:44.359Z,3.94
2023-03-17T04:54:47.759Z,3.91
2023-03-17T04:57:52.279Z,3.90
2023-03-17T05:00:55.718Z,3.88
2023-03-17T05:03:58.833Z,3.90
2023-03-17T05:07:02.834Z,3.86
2023-03-17T05:10:07.440Z,3.88
2023-03-17T05:13:11.758Z,3.88
2023-03-17T05:16:14.896Z,3.85
2023-03-17T05:19:19.165Z,3.83
2023-03-17T05:22:22.109Z,3.87
2023-03-17T05:25:25.321Z,3.91
2023-03-17T05:28:29.662Z,3.95
2023-03-17T05:31:33.074Z,3.94
2023-03-17T05:34:36.063Z,3.94
2023-03-17T05:37:39.010Z,3.94
2023-03-17T05:40:42.692Z,3.90
2023-03-17T05:43:47.255Z,3.94
2023-03-17T05:46:50.221Z,3.96
2023-03-17T05:49:54.027Z,4.00
2023-03-17T05:52:57.053Z,4.03
2023-03-17T05:56:00.167Z,4.05
2023-03-17T05:59:14.945Z,4.05
2023-03-17T06:02:18.319Z,4.06
2023-03-17T06:05:23.865Z,4.07
2023-03-17T06:08:26.892Z,4.08
2023-03-17T06:11:30.331Z,4.09
2023-03-17T06:14:34.860Z,4.10
2023-03-17T06:17:38.456Z,4.09
2023-03-17T06:20:41.566Z,4.08
2023-03-17T06:23:44.569Z,4.09
2023-03-17T06:26:47.561Z,4.12
2023-03-17T06:29:51.812Z,4.14
2023-03-17T06:32:55.282Z,4.16
2023-03-17T06:36:00.506Z,4.18
2023-03-17T06:39:09.537Z,4.18
2023-03-17T06:42:12.941Z,4.23
2023-03-17T06:45:17.460Z,4.27
2023-03-17T06:48:20.795Z,4.30
2023-03-17T06:51:26.038Z,4.29
2023-03-17T06:54:33.498Z,4.32
2023-03-17T06:57:43.572Z,4.38
2023-03-17T07:00:48.850Z,4.45
2023-03-17T07:03:51.983Z,4.49
2023-03-17T07:06:55.211Z,4.55
2023-03-17T07:10:01.155Z,4.60
2023-03-17T07:13:05.991Z,4.65
2023-03-17T07:16:13.935Z,4.70
2023-03-17T07:19:22.394Z,4.71
2023-03-17T07:22:26.184Z,4.77
2023-03-17T07:25:44.058Z,4.82
2023-03-17T07:29:01.377Z,4.88
2023-03-17T07:32:08.115Z,4.95
2023-03-17T07:35:11.165Z,5.08
2023-03-17T07:38:14.226Z,5.25
2023-03-17T07:41:17.712Z,5.37
2023-03-17T07:44:20.926Z,5.52
2023-03-17T07:47:25.316Z,5.69
2023-03-17T07:50:28.457Z,5.74
2023-03-17T07:53:31.558Z,5.75
2023-03-17T07:56:34.615Z,5.72
2023-03-17T07:59:38.255Z,5.76
2023-03-17T08:03:03.176Z,5.92
2023-03-17T08:06:11.514Z,6.06
2023-03-17T08:09:14.700Z,6.21
2023-03-17T08:12:17.768Z,6.40
2023-03-17T08:15:22.032Z,6.62
2023-03-17T08:18:29.414Z,6.88
2023-03-17T08:21:32.464Z,7.18
2023-03-17T08:24:35.522Z,7.16
2023-03-17T08:27:39.125Z,7.16
2023-03-17T08:30:42.480Z,7.13
2023-03-17T08:33:50.294Z,7.23
2023-03-17T08:36:53.467Z,7.38
2023-03-17T08:39:56.421Z,7.38
2023-03-17T08:42:59.351Z,7.47
2023-03-17T08:46:07.084Z,7.60
2023-03-17T08:49:12.601Z,7.79
2023-03-17T08:52:16.180Z,7.77
2023-03-17T08:55:20.286Z,7.78
2023-03-17T08:58:26.111Z,7.75
2023-03-17T09:01:29.247Z,7.79
2023-03-17T09:04:33.905Z,7.90
2023-03-17T09:07:37.566Z,8.03
2023-03-17T09:10:42.500Z,8.01
2023-03-17T09:13:49.195Z,8.07
2023-03-17T09:16:54.953Z,8.10
2023-03-17T09:19:59.450Z,8.23
2023-03-17T09:23:07.842Z,8.32
2023-03-17T09:26:11.095Z,8.45
2023-03-17T09:29:15.635Z,8.50
2023-03-17T09:32:18.789Z,8.58
2023-03-17T09:35:23.268Z,8.71
2023-03-17T09:38:28.993Z,8.78
2023-03-17T09:42:02.439Z,8.92
2023-03-17T09:45:20.237Z,9.12
2023-03-17T09:48:46.880Z,9.30
2023-03-17T09:51:54.741Z,9.47
2023-03-17T09:54:58.660Z,9.85
2023-03-17T09:58:03.456Z,10.18
2023-03-17T10:01:08.002Z,10.53
2023-03-17T10:04:12.519Z,10.86
2023-03-17T10:07:26.017Z,10.89
2023-03-17T10:10:37.429Z,10.86
2023-03-17T10:13:54.824Z,10.73
2023-03-17T10:17:04.512Z,11.06
2023-03-17T10:20:17.235Z,11.29
2023-03-17T10:23:27.161Z,11.52
2023-03-17T10:26:34.964Z,11.50
2023-03-17T10:29:38.314Z,11.49
2023-03-17T10:32:42.110Z,11.57
2023-03-17T10:35:45.531Z,11.58
2023-03-17T10:38:54.804Z,11.76
2023-03-17T10:42:00.358Z,11.98
2023-03-17T10:45:13.183Z,11.96
2023-03-17T10:48:20.621Z,12.37
2023-03-17T10:51:35.399Z,12.11
2023-03-17T10:54:42.878Z,12.20
2023-03-17T10:57:54.588Z,12.56
2023-03-17T11:01:00.886Z,12.34
2023-03-17T11:04:20.646Z,12.10
2023-03-17T11:07:34.512Z,12.17
2023-03-17T11:10:41.623Z,12.40
2023-03-17T11:13:44.966Z,12.36
2023-03-17T11:16:55.178Z,12.42
2023-03-17T11:20:12.868Z,12.67
2023-03-17T11:23:42.469Z,12.76
2023-03-17T11:26:57.561Z,12.83
2023-03-17T11:30:30.345Z,13.01
2023-03-17T11:33:37.429Z,12.92
2023-03-17T11:36:50.537Z,13.19
2023-03-17T11:43:34.880Z,13.16
2023-03-17T11:46:44.119Z,13.40
2023-03-17T11:49:54.127Z,13.72
2023-03-17T11:53:18.472Z,13.67
2023-03-17T11:56:26.154Z,13.87
2023-03-17T11:59:38.403Z,13.76
2023-03-17T12:02:47.509Z,13.63
2023-03-17T12:05:55.607Z,13.61
2023-03-17T12:09:01.937Z,13.53
2023-03-17T12:12:06.916Z,13.33
2023-03-17T12:15:22.305Z,13.33
2023-03-17T12:18:31.204Z,13.51
2023-03-17T12:21:42.142Z,13.62
2023-03-17T12:24:51.748Z,13.80
2023-03-17T12:28:02.370Z,13.84
2023-03-17T12:31:09.082Z,13.83
2023-03-17T12:34:21.738Z,13.85
2023-03-17T12:37:27.643Z,13.86
2023-03-17T12:40:37.077Z,13.89
2023-03-17T12:43:52.209Z,13.74
2023-03-17T12:47:21.765Z,13.86
2023-03-17T12:51:07.601Z,13.96
2023-03-17T12:54:16.245Z,14.23
2023-03-17T12:57:22.137Z,14.28
2023-03-17T13:00:29.532Z,14.16
2023-03-17T13:03:38.407Z,14.26
2023-03-17T13:06:45.657Z,14.06
2023-03-17T13:09:53.041Z,13.92
2023-03-17T13:13:12.030Z,13.79
2023-03-17T13:16:33.793Z,13.97
2023-03-17T13:19:56.787Z,14.06
2023-03-17T13:23:11.267Z,14.19
2023-03-17T13:26:16.636Z,14.36
2023-03-17T13:29:40.917Z,14.35
2023-03-17T13:32:44.248Z,14.22
2023-03-17T13:36:07.363Z,14.20
2023-03-17T13:39:48.663Z,14.14
2023-03-17T13:43:12.991Z,14.29
2023-03-17T13:46:24.335Z,14.20
2023-03-17T13:49:32.109Z,14.28
2023-03-17T13:52:43.266Z,14.34
2023-03-17T13:56:11.959Z,14.50
2023-03-17T13:59:18.680Z,14.34
2023-03-17T14:02:40.144Z,14.29
2023-03-17T14:05:47.985Z,14.32
2023-03-17T14:08:58.385Z,14.48
2023-03-17T14:12:07.692Z,14.48
2023-03-17T14:15:21.335Z,14.56
2023-03-17T14:18:33.324Z,14.53
2023-03-17T14:21:36.517Z,14.47
2023-03-17T14:24:41.124Z,14.45
2023-03-17T14:27:46.446Z,14.46
2023-03-17T14:30:55.468Z,14.48
2023-03-17T14:34:00.896Z,14.48
2023-03-17T14:37:05.724Z,14.45
2023-03-17T14:40:23.221Z,14.48
2023-03-17T14:43:26.350Z,14.35
2023-03-17T14:46:34.625Z,14.37
2023-03-17T14:49:37.615Z,14.46
2023-03-17T14:52:41.242Z,14.27
2023-03-17T14:55:46.542Z,14.28
2023-03-17T14:58:53.401Z,14.19
2023-03-17T15:01:58.956Z,14.14
2023-03-17T15:05:21.217Z,14.18
2023-03-17T15:08:45.957Z,14.16
2023-03-17T15:11:50.558Z,14.14
2023-03-17T15:14:57.461Z,14.10
2023-03-17T15:18:04.982Z,14.09
2023-03-17T15:21:29.796Z,14.14
2023-03-17T15:24:39.869Z,14.08
2023-03-17T15:27:45.079Z,14.04
2023-03-17T15:30:50.730Z,13.96
2023-03-17T15:33:54.003Z,13.97
2023-03-17T15:36:59.421Z,13.88
2023-03-17T15:40:05.437Z,13.88
2023-03-17T15:43:14.847Z,13.87
2023-03-17T15:46:24.799Z,13.88
2023-03-17T15:49:27.877Z,13.81
2023-03-17T15:52:30.886Z,13.78
2023-03-17T15:55:34.070Z,13.77
2023-03-17T15:58:38.622Z,13.68
2023-03-17T16:01:41.931Z,13.60
2023-03-17T16:04:44.914Z,13.65
2023-03-17T16:07:47.986Z,13.58
2023-03-17T16:10:53.052Z,13.51
2023-03-17T16:13:59.089Z,13.48
2023-03-17T16:17:02.286Z,13.43
2023-03-17T16:20:06.267Z,13.38
2023-03-17T16:23:16.422Z,13.38
2023-03-17T16:26:19.374Z,13.30
2023-03-17T16:29:23.671Z,13.27
2023-03-17T16:32:26.782Z,13.27
2023-03-17T16:35:30.715Z,13.21
2023-03-17T16:38:35.479Z,13.24
2023-03-17T16:41:38.495Z,13.19
2023-03-17T16:44:42.811Z,13.09
2023-03-17T16:47:46.060Z,13.08
2023-03-17T16:50:49.411Z,12.98
2023-03-17T16:53:52.498Z,12.92
2023-03-17T16:56:55.818Z,12.85
2023-03-17T17:00:00.251Z,12.89
2023-03-17T17:03:03.314Z,12.73
2023-03-17T17:06:12.245Z,12.72
2023-03-17T17:09:17.469Z,12.62
2023-03-17T17:12:20.414Z,12.65
2023-03-17T17:15:25.669Z,12.64
2023-03-17T17:18:31.273Z,12.61
2023-03-17T17:21:34.300Z,12.49
2023-03-17T17:24:37.259Z,12.47
2023-03-17T17:27:42.487Z,12.40
2023-03-17T17:30:48.025Z,12.36
2023-03-17T17:33:50.981Z,12.33
2023-03-17T17:36:54.097Z,12.32
2023-03-17T17:39:57.153Z,12.26
2023-03-17T17:43:00.510Z,12.25
2023-03-17T17:46:05.157Z,12.24
2023-03-17T17:49:08.918Z,12.18
2023-03-17T17:52:11.955Z,12.06
2023-03-17T17:55:14.989Z,11.98
2023-03-17T17:58:20.394Z,11.92
2023-03-17T18:01:24.958Z,11.92
2023-03-17T18:04:28.042Z,11.82
2023-03-17T18:07:31.188Z,11.84
2023-03-17T18:10:35.074Z,11.86
2023-03-17T18:13:38.997Z,11.91
2023-03-17T18:16:43.375Z,11.84
2023-03-17T18:19:46.321Z,11.80
2023-03-17T18:22:50.240Z,11.78
2023-03-17T18:26:00.753Z,11.79
2023-03-17T18:29:03.858Z,11.75
2023-03-17T18:32:09.183Z,11.66
2023-03-17T18:35:17.277Z,11.55
2023-03-17T18:38:20.302Z,11.58
2023-03-17T18:41:24.287Z,11.60
2023-03-17T18:44:27.313Z,11.53
2023-03-17T18:47:31.553Z,11.52
2023-03-17T18:50:34.851Z,11.43
2023-03-17T18:53:39.178Z,11.34
2023-03-17T18:56:42.174Z,11.27
2023-03-17T18:59:45.281Z,11.24
2023-03-17T19:02:49.839Z,11.21
2023-03-17T19:05:53.205Z,11.22
2023-03-17T19:08:57.268Z,11.20
2023-03-17T19:12:00.230Z,11.17
2023-03-17T19:15:04.192Z,11.15
2023-03-17T19:18:09.685Z,11.08
2023-03-17T19:21:14.479Z,11.02
2023-03-17T19:24:17.577Z,11.01
2023-03-17T19:27:20.767Z,11.00
2023-03-17T19:30:23.781Z,10.95
2023-03-17T19:33:29.124Z,10.91
2023-03-17T19:36:37.601Z,10.94
2023-03-17T19:39:44.144Z,10.93
2023-03-17T19:42:47.201Z,10.89
2023-03-17T19:45:50.243Z,10.86
2023-03-17T19:48:56.488Z,10.87
2023-03-17T19:51:59.579Z,10.79
2023-03-17T19:55:04.588Z,10.81
2023-03-17T19:58:11.701Z,10.77
2023-03-17T20:01:15.279Z,10.76
2023-03-17T20:04:21.795Z,10.77
2023-03-17T20:07:24.872Z,10.76
2023-03-17T20:10:27.897Z,10.73
2023-03-17T20:13:30.852Z,10.70
2023-03-17T20:16:36.162Z,10.73
2023-03-17T20:19:40.529Z,10.70
2023-03-17T20:22:43.902Z,10.72
2023-03-17T20:25:46.939Z,10.67
2023-03-17T20:28:50.739Z,10.70
2023-03-17T20:31:54.016Z,10.70
2023-03-17T20:34:58.554Z,10.66
2023-03-17T20:38:02.144Z,10.65
2023-03-17T20:41:08.012Z,10.63
2023-03-17T20:44:10.940Z,10.53
2023-03-17T20:47:14.388Z,10.49
2023-03-17T20:50:19.085Z,10.51
2023-03-17T20:53:23.266Z,10.54
2023-03-17T20:56:28.424Z,10.50
2023-03-17T20:59:31.515Z,10.50
2023-03-17T21:02:34.757Z,10.51
2023-03-17T21:05:39.450Z,10.43
2023-03-17T21:08:42.475Z,10.39
2023-03-17T21:11:45.656Z,10.38
2023-03-17T21:14:50.637Z,10.36
2023-03-17T21:17:53.710Z,10.33
2023-03-17T21:20:58.235Z,10.30
2023-03-17T21:24:02.177Z,10.27
2023-03-17T21:27:09.551Z,10.25
2023-03-17T21:30:15.720Z,10.11
2023-03-17T21:33:19.324Z,10.21
2023-03-17T21:36:26.678Z,10.17
2023-03-17T21:39:30.427Z,10.13
2023-03-17T21:42:33.516Z,10.07
2023-03-17T21:45:37.136Z,10.01
2023-03-17T21:48:40.139Z,10.00
2023-03-17T21:51:46.318Z,9.94
2023-03-17T21:54:50.334Z,9.94
2023-03-17T21:57:53.740Z,9.85
2023-03-17T22:00:57.023Z,9.79
2023-03-17T22:04:00.498Z,9.78
2023-03-17T22:07:05.276Z,9.77
2023-03-17T22:10:09.977Z,9.77
2023-03-17T22:13:12.948Z,9.73
2023-03-17T22:16:20.230Z,9.74
2023-03-17T22:19:23.411Z,9.69
2023-03-17T22:22:29.129Z,9.62
2023-03-17T22:25:32.082Z,9.60
2023-03-17T22:28:35.349Z,9.58
2023-03-17T22:31:38.324Z,9.55
2023-03-17T22:34:41.357Z,9.52
2023-03-17T22:37:45.934Z,9.48
2023-03-17T22:40:48.914Z,9.49
2023-03-17T22:43:52.638Z,9.38
2023-03-17T22:46:56.207Z,9.34
2023-03-17T22:49:59.185Z,9.30
2023-03-17T22:53:03.473Z,9.28
2023-03-17T22:56:07.840Z,9.17
2023-03-17T22:59:11.387Z,9.16
2023-03-17T23:02:15.792Z,9.12
2023-03-17T23:10:41.725Z,8.94
2023-03-17T23:13:45.415Z,8.92
2023-03-17T23:16:48.695Z,8.94
2023-03-17T23:19:51.738Z,8.87
2023-03-17T23:22:54.787Z,8.86
2023-03-17T23:25:59.458Z,8.83
2023-03-17T23:29:02.455Z,8.90
2023-03-17T23:32:06.641Z,8.91
2023-03-17T23:35:10.956Z,8.87
2023-03-17T23:38:14.029Z,8.92
2023-03-17T23:41:18.407Z,8.92
2023-03-17T23:44:21.579Z,8.91
2023-03-17T23:47:24.706Z,8.89
2023-03-17T23:50:27.863Z,8.94
2023-03-17T23:53:31.369Z,8.94
2023-03-17T23:56:35.827Z,8.92
2023-03-17T23:59:38.764Z,8.91
